首页
METAR-TAF:

METAR-TAF

机场 :

马拉松, 佛罗里达州, 美国

纬度: 24-43-33N, 经度: 081-02-52W, 海拔: 2米

当前天气观测

该预报发布于39分钟前的22:53 UTC
静风
温度 26°C
湿度 65%
气压 1016 hPa
能見度: 16.1公里
少量云层高于2500英尺

METAR: KMTH 022253Z AUTO 00000KT 10SM FEW025 26/19 A2999 RMK AO2 SLP154 T02560194

时间: 18:32 (23:32 UTC)

预报

该预报发布于4小时和37分钟前的18:55 UTC
预报有效从02日的 19点(UTC)到 03日的 18点(UTC)
风速8节,风向南转南东
能見度: 10公里
散云层高于2500英尺
从 03日的 1200点(UTC)
风速6节,风向南转西南
能見度: 10公里
散云层高于2500英尺

TAF: KMTH 021855Z 0219/0318 15008KT P6SM SCT025 FM031200 20006KT P6SM SCT025

超过4000个机场的气象观测和天气预报(METAR&TAF报告)。

可查询的气象台以黄色和红色小点在地图上表示。

将鼠标移到小点上方,可查看气象台名称。

然后点击查看天气观测和预报。

如需切换地图:点击带黑十字的绿色按钮放大地图;点击带横线的绿色按钮缩小地图;或者点击绿色箭头查看邻近地区的地图。


METAR-TAF: